McGregor, Canada
Current Conditions -  °F | °C
As of 12:00 PM on Thursday 27 Nov 2014 (Local Time) from CYQG Reporting Station
Broken Clouds Broken Clouds  
Wind Chill: 26°   Ceiling: 3100
Heat Index: 34°   Visibility: 15mi
Dew Point: 23°   Wind: 10mph
Humidity: 65%   Direction: 300°WNW
Pressure: 30.14"   Gusts: 18mph
Location:  42.15°N, 82.97°W
Report Text: CYQG 271700Z 30009G16KT 15SM BKN031 01/M05 A3014 RMK CU7 SLP215
Loading
Personal Weather Stations






























Interactive Weather Map New forecast layout! Learn more

10-Day Weather Forecast

Advertisements
Track Severe Weather on mobile